sensor_id;sensor_type;location;lat;lon;timestamp;P1;durP1;ratioP1;P2;durP2;ratioP2
54263;SDS011;40178;53.042;6.406;2023-02-17T00:00:21;59.50;;;20.45;;
54263;SDS011;40178;53.042;6.406;2023-02-17T00:02:47;60.65;;;20.83;;
54263;SDS011;40178;53.042;6.406;2023-02-17T00:05:12;57.95;;;20.40;;
54263;SDS011;40178;53.042;6.406;2023-02-17T00:07:38;59.97;;;21.20;;
54263;SDS011;40178;53.042;6.406;2023-02-17T00:10:04;71.82;;;23.33;;
54263;SDS011;40178;53.042;6.406;2023-02-17T00:12:31;71.00;;;22.15;;
54263;SDS011;40178;53.042;6.406;2023-02-17T00:14:56;66.88;;;22.48;;
54263;SDS011;40178;53.042;6.406;2023-02-17T00:17:22;77.25;;;23.20;;
54263;SDS011;40178;53.042;6.406;2023-02-17T00:19:48;81.82;;;25.98;;
54263;SDS011;40178;53.042;6.406;2023-02-17T00:22:13;72.53;;;25.02;;
54263;SDS011;40178;53.042;6.406;2023-02-17T00:24:39;72.93;;;25.58;;
54263;SDS011;40178;53.042;6.406;2023-02-17T00:27:05;96.13;;;27.95;;
54263;SDS011;40178;53.042;6.406;2023-02-17T00:29:31;64.68;;;24.63;;
54263;SDS011;40178;53.042;6.406;2023-02-17T00:31:58;76.93;;;26.17;;
54263;SDS011;40178;53.042;6.406;2023-02-17T00:34:23;78.78;;;25.25;;
54263;SDS011;40178;53.042;6.406;2023-02-17T00:36:51;81.75;;;27.02;;
54263;SDS011;40178;53.042;6.406;2023-02-17T00:39:16;93.80;;;28.55;;
54263;SDS011;40178;53.042;6.406;2023-02-17T00:41:42;86.97;;;28.10;;
54263;SDS011;40178;53.042;6.406;2023-02-17T00:44:12;76.50;;;26.50;;
54263;SDS011;40178;53.042;6.406;2023-02-17T00:46:46;82.22;;;26.38;;
54263;SDS011;40178;53.042;6.406;2023-02-17T00:49:16;76.95;;;28.08;;
54263;SDS011;40178;53.042;6.406;2023-02-17T00:51:43;84.32;;;28.08;;
54263;SDS011;40178;53.042;6.406;2023-02-17T00:54:09;76.18;;;26.10;;
54263;SDS011;40178;53.042;6.406;2023-02-17T00:56:35;90.50;;;29.13;;
54263;SDS011;40178;53.042;6.406;2023-02-17T00:59:01;70.88;;;26.15;;
54263;SDS011;40178;53.042;6.406;2023-02-17T01:01:27;75.15;;;26.27;;
54263;SDS011;40178;53.042;6.406;2023-02-17T01:03:53;81.38;;;28.42;;
54263;SDS011;40178;53.042;6.406;2023-02-17T01:06:21;86.55;;;28.17;;
54263;SDS011;40178;53.042;6.406;2023-02-17T01:08:58;86.55;;;29.17;;
54263;SDS011;40178;53.042;6.406;2023-02-17T01:11:25;97.15;;;31.38;;
54263;SDS011;40178;53.042;6.406;2023-02-17T01:13:52;93.43;;;30.38;;
54263;SDS011;40178;53.042;6.406;2023-02-17T01:16:21;86.75;;;30.70;;
54263;SDS011;40178;53.042;6.406;2023-02-17T01:18:49;100.68;;;31.30;;
54263;SDS011;40178;53.042;6.406;2023-02-17T01:21:19;82.00;;;29.55;;
54263;SDS011;40178;53.042;6.406;2023-02-17T01:23:48;83.38;;;30.33;;
54263;SDS011;40178;53.042;6.406;2023-02-17T01:26:15;85.25;;;30.52;;
54263;SDS011;40178;53.042;6.406;2023-02-17T01:28:42;88.22;;;31.30;;
54263;SDS011;40178;53.042;6.406;2023-02-17T01:31:08;93.22;;;31.92;;
54263;SDS011;40178;53.042;6.406;2023-02-17T01:33:35;85.70;;;28.35;;
54263;SDS011;40178;53.042;6.406;2023-02-17T01:36:02;82.22;;;30.10;;
54263;SDS011;40178;53.042;6.406;2023-02-17T01:38:29;86.40;;;31.30;;
54263;SDS011;40178;53.042;6.406;2023-02-17T01:40:55;80.93;;;31.10;;
54263;SDS011;40178;53.042;6.406;2023-02-17T01:43:21;87.28;;;31.70;;
54263;SDS011;40178;53.042;6.406;2023-02-17T01:45:53;83.57;;;30.63;;
54263;SDS011;40178;53.042;6.406;2023-02-17T01:48:20;80.53;;;30.25;;
54263;SDS011;40178;53.042;6.406;2023-02-17T01:50:53;91.35;;;29.95;;
54263;SDS011;40178;53.042;6.406;2023-02-17T01:55:53;82.20;;;29.58;;
54263;SDS011;40178;53.042;6.406;2023-02-17T01:58:19;86.35;;;30.13;;
54263;SDS011;40178;53.042;6.406;2023-02-17T02:00:48;86.47;;;31.27;;
54263;SDS011;40178;53.042;6.406;2023-02-17T02:03:17;78.18;;;29.90;;
54263;SDS011;40178;53.042;6.406;2023-02-17T02:05:43;87.03;;;32.33;;
54263;SDS011;40178;53.042;6.406;2023-02-17T02:08:10;86.47;;;32.60;;
54263;SDS011;40178;53.042;6.406;2023-02-17T02:10:37;94.88;;;32.15;;
54263;SDS011;40178;53.042;6.406;2023-02-17T02:13:03;92.43;;;33.03;;
54263;SDS011;40178;53.042;6.406;2023-02-17T02:15:32;77.38;;;30.52;;
54263;SDS011;40178;53.042;6.406;2023-02-17T02:23:42;90.88;;;32.47;;
54263;SDS011;40178;53.042;6.406;2023-02-17T02:34:53;91.93;;;32.80;;
54263;SDS011;40178;53.042;6.406;2023-02-17T02:37:24;93.07;;;30.67;;
54263;SDS011;40178;53.042;6.406;2023-02-17T02:40:10;94.40;;;34.90;;
54263;SDS011;40178;53.042;6.406;2023-02-17T02:42:38;84.07;;;30.95;;
54263;SDS011;40178;53.042;6.406;2023-02-17T02:45:06;105.70;;;33.05;;
54263;SDS011;40178;53.042;6.406;2023-02-17T02:50:17;90.85;;;32.85;;
54263;SDS011;40178;53.042;6.406;2023-02-17T02:56:00;83.13;;;32.78;;
54263;SDS011;40178;53.042;6.406;2023-02-17T02:58:37;81.78;;;32.10;;
54263;SDS011;40178;53.042;6.406;2023-02-17T03:04:12;82.38;;;31.95;;
54263;SDS011;40178;53.042;6.406;2023-02-17T03:06:57;81.38;;;31.25;;
54263;SDS011;40178;53.042;6.406;2023-02-17T03:09:32;89.03;;;32.70;;
54263;SDS011;40178;53.042;6.406;2023-02-17T03:11:58;79.43;;;31.60;;
54263;SDS011;40178;53.042;6.406;2023-02-17T03:14:24;72.50;;;29.10;;
54263;SDS011;40178;53.042;6.406;2023-02-17T03:16:51;74.70;;;29.20;;
54263;SDS011;40178;53.042;6.406;2023-02-17T03:19:18;70.32;;;26.30;;
54263;SDS011;40178;53.042;6.406;2023-02-17T03:21:54;72.05;;;28.05;;
54263;SDS011;40178;53.042;6.406;2023-02-17T03:24:23;69.60;;;27.88;;
54263;SDS011;40178;53.042;6.406;2023-02-17T03:26:49;66.57;;;27.55;;
54263;SDS011;40178;53.042;6.406;2023-02-17T03:29:14;69.25;;;26.50;;
54263;SDS011;40178;53.042;6.406;2023-02-17T03:31:40;66.53;;;26.17;;
54263;SDS011;40178;53.042;6.406;2023-02-17T03:34:06;70.97;;;28.05;;
54263;SDS011;40178;53.042;6.406;2023-02-17T03:36:32;58.60;;;25.52;;
54263;SDS011;40178;53.042;6.406;2023-02-17T03:38:58;63.70;;;25.17;;
54263;SDS011;40178;53.042;6.406;2023-02-17T03:41:23;64.53;;;25.70;;
54263;SDS011;40178;53.042;6.406;2023-02-17T03:43:49;61.72;;;25.17;;
54263;SDS011;40178;53.042;6.406;2023-02-17T03:46:16;61.35;;;25.27;;
54263;SDS011;40178;53.042;6.406;2023-02-17T03:48:42;60.10;;;25.25;;
54263;SDS011;40178;53.042;6.406;2023-02-17T03:51:11;56.58;;;23.90;;
54263;SDS011;40178;53.042;6.406;2023-02-17T03:53:38;55.33;;;22.48;;
54263;SDS011;40178;53.042;6.406;2023-02-17T03:56:04;58.58;;;24.40;;
54263;SDS011;40178;53.042;6.406;2023-02-17T03:58:30;53.08;;;21.67;;
54263;SDS011;40178;53.042;6.406;2023-02-17T04:00:56;56.58;;;22.48;;
54263;SDS011;40178;53.042;6.406;2023-02-17T04:03:21;48.08;;;22.15;;
54263;SDS011;40178;53.042;6.406;2023-02-17T04:05:47;50.88;;;21.17;;
54263;SDS011;40178;53.042;6.406;2023-02-17T04:08:12;47.05;;;20.92;;
54263;SDS011;40178;53.042;6.406;2023-02-17T04:10:38;49.28;;;21.33;;
54263;SDS011;40178;53.042;6.406;2023-02-17T04:13:04;48.08;;;20.33;;
54263;SDS011;40178;53.042;6.406;2023-02-17T04:15:29;48.67;;;20.10;;
54263;SDS011;40178;53.042;6.406;2023-02-17T04:17:55;45.40;;;19.60;;
54263;SDS011;40178;53.042;6.406;2023-02-17T04:20:20;47.63;;;20.70;;
54263;SDS011;40178;53.042;6.406;2023-02-17T04:22:46;46.13;;;19.40;;
54263;SDS011;40178;53.042;6.406;2023-02-17T04:25:12;43.35;;;17.67;;
54263;SDS011;40178;53.042;6.406;2023-02-17T04:27:37;41.88;;;18.33;;
54263;SDS011;40178;53.042;6.406;2023-02-17T04:30:03;47.33;;;18.50;;
54263;SDS011;40178;53.042;6.406;2023-02-17T04:32:31;41.22;;;19.00;;
54263;SDS011;40178;53.042;6.406;2023-02-17T04:34:56;42.72;;;19.33;;
54263;SDS011;40178;53.042;6.406;2023-02-17T04:37:22;51.72;;;20.40;;
54263;SDS011;40178;53.042;6.406;2023-02-17T04:39:48;44.88;;;18.48;;
54263;SDS011;40178;53.042;6.406;2023-02-17T04:42:14;50.45;;;20.05;;
54263;SDS011;40178;53.042;6.406;2023-02-17T04:44:39;45.00;;;19.45;;
54263;SDS011;40178;53.042;6.406;2023-02-17T04:47:05;51.13;;;19.45;;
54263;SDS011;40178;53.042;6.406;2023-02-17T04:49:30;42.80;;;18.73;;
54263;SDS011;40178;53.042;6.406;2023-02-17T04:51:56;46.05;;;19.08;;
54263;SDS011;40178;53.042;6.406;2023-02-17T04:54:22;51.53;;;19.73;;
54263;SDS011;40178;53.042;6.406;2023-02-17T04:56:48;48.15;;;19.58;;
54263;SDS011;40178;53.042;6.406;2023-02-17T04:59:13;52.95;;;20.85;;
54263;SDS011;40178;53.042;6.406;2023-02-17T05:01:39;57.53;;;21.48;;
54263;SDS011;40178;53.042;6.406;2023-02-17T05:04:04;47.97;;;18.65;;
54263;SDS011;40178;53.042;6.406;2023-02-17T05:06:30;47.45;;;18.10;;
54263;SDS011;40178;53.042;6.406;2023-02-17T05:08:56;47.13;;;19.05;;
54263;SDS011;40178;53.042;6.406;2023-02-17T05:11:21;45.13;;;18.30;;
54263;SDS011;40178;53.042;6.406;2023-02-17T05:13:47;50.92;;;18.60;;
54263;SDS011;40178;53.042;6.406;2023-02-17T05:16:13;44.80;;;18.17;;
54263;SDS011;40178;53.042;6.406;2023-02-17T05:18:38;45.10;;;18.23;;
54263;SDS011;40178;53.042;6.406;2023-02-17T05:21:04;44.53;;;17.30;;
54263;SDS011;40178;53.042;6.406;2023-02-17T05:23:29;46.30;;;18.80;;
54263;SDS011;40178;53.042;6.406;2023-02-17T05:25:55;45.05;;;18.73;;
54263;SDS011;40178;53.042;6.406;2023-02-17T05:28:21;44.53;;;18.02;;
54263;SDS011;40178;53.042;6.406;2023-02-17T05:30:47;49.30;;;20.98;;
54263;SDS011;40178;53.042;6.406;2023-02-17T05:33:13;44.25;;;18.55;;
54263;SDS011;40178;53.042;6.406;2023-02-17T05:35:39;42.20;;;17.67;;
54263;SDS011;40178;53.042;6.406;2023-02-17T05:38:04;47.17;;;18.55;;
54263;SDS011;40178;53.042;6.406;2023-02-17T05:40:30;49.13;;;19.75;;
54263;SDS011;40178;53.042;6.406;2023-02-17T05:42:56;52.20;;;19.85;;
54263;SDS011;40178;53.042;6.406;2023-02-17T05:45:21;52.25;;;21.08;;
54263;SDS011;40178;53.042;6.406;2023-02-17T05:47:47;55.00;;;21.70;;
54263;SDS011;40178;53.042;6.406;2023-02-17T05:50:12;52.97;;;22.38;;
54263;SDS011;40178;53.042;6.406;2023-02-17T05:52:38;55.17;;;23.10;;
54263;SDS011;40178;53.042;6.406;2023-02-17T05:55:04;61.03;;;23.42;;
54263;SDS011;40178;53.042;6.406;2023-02-17T05:57:30;64.22;;;24.42;;
54263;SDS011;40178;53.042;6.406;2023-02-17T05:59:55;60.45;;;23.40;;
54263;SDS011;40178;53.042;6.406;2023-02-17T06:02:21;59.97;;;22.92;;
54263;SDS011;40178;53.042;6.406;2023-02-17T06:04:47;64.40;;;23.20;;
54263;SDS011;40178;53.042;6.406;2023-02-17T06:07:12;55.03;;;23.88;;
54263;SDS011;40178;53.042;6.406;2023-02-17T06:09:38;56.53;;;22.92;;
54263;SDS011;40178;53.042;6.406;2023-02-17T06:12:03;63.65;;;23.35;;
54263;SDS011;40178;53.042;6.406;2023-02-17T06:14:29;63.83;;;24.63;;
54263;SDS011;40178;53.042;6.406;2023-02-17T06:16:55;67.68;;;23.88;;
54263;SDS011;40178;53.042;6.406;2023-02-17T06:19:21;61.63;;;23.70;;
54263;SDS011;40178;53.042;6.406;2023-02-17T06:21:47;68.47;;;23.35;;
54263;SDS011;40178;53.042;6.406;2023-02-17T06:24:13;56.50;;;21.83;;
54263;SDS011;40178;53.042;6.406;2023-02-17T06:26:39;50.58;;;20.85;;
54263;SDS011;40178;53.042;6.406;2023-02-17T06:29:05;52.92;;;22.60;;
54263;SDS011;40178;53.042;6.406;2023-02-17T06:31:30;57.78;;;22.95;;
54263;SDS011;40178;53.042;6.406;2023-02-17T06:33:56;56.20;;;22.23;;
54263;SDS011;40178;53.042;6.406;2023-02-17T06:36:22;56.38;;;21.40;;
54263;SDS011;40178;53.042;6.406;2023-02-17T06:38:48;55.08;;;21.92;;
54263;SDS011;40178;53.042;6.406;2023-02-17T06:41:14;54.83;;;20.52;;
54263;SDS011;40178;53.042;6.406;2023-02-17T06:43:39;46.58;;;21.00;;
54263;SDS011;40178;53.042;6.406;2023-02-17T06:46:05;48.03;;;20.65;;
54263;SDS011;40178;53.042;6.406;2023-02-17T06:48:30;48.30;;;19.88;;
54263;SDS011;40178;53.042;6.406;2023-02-17T06:50:57;52.78;;;22.30;;
54263;SDS011;40178;53.042;6.406;2023-02-17T06:53:24;48.97;;;20.92;;
54263;SDS011;40178;53.042;6.406;2023-02-17T06:55:50;54.42;;;20.92;;
54263;SDS011;40178;53.042;6.406;2023-02-17T06:58:15;51.95;;;20.67;;
54263;SDS011;40178;53.042;6.406;2023-02-17T07:00:41;50.75;;;17.23;;
54263;SDS011;40178;53.042;6.406;2023-02-17T07:03:06;40.22;;;16.17;;
54263;SDS011;40178;53.042;6.406;2023-02-17T07:05:36;43.05;;;16.85;;
54263;SDS011;40178;53.042;6.406;2023-02-17T07:08:03;49.83;;;16.40;;
54263;SDS011;40178;53.042;6.406;2023-02-17T07:10:30;39.30;;;17.10;;
54263;SDS011;40178;53.042;6.406;2023-02-17T07:12:56;47.53;;;17.95;;
54263;SDS011;40178;53.042;6.406;2023-02-17T07:15:21;46.67;;;18.55;;
54263;SDS011;40178;53.042;6.406;2023-02-17T07:17:47;52.03;;;18.23;;
54263;SDS011;40178;53.042;6.406;2023-02-17T07:20:12;43.20;;;17.63;;
54263;SDS011;40178;53.042;6.406;2023-02-17T07:22:38;40.60;;;17.30;;
54263;SDS011;40178;53.042;6.406;2023-02-17T07:25:04;46.17;;;17.90;;
54263;SDS011;40178;53.042;6.406;2023-02-17T07:27:31;44.28;;;16.58;;
54263;SDS011;40178;53.042;6.406;2023-02-17T07:29:58;50.78;;;19.17;;
54263;SDS011;40178;53.042;6.406;2023-02-17T07:32:24;44.53;;;18.25;;
54263;SDS011;40178;53.042;6.406;2023-02-17T07:34:49;50.90;;;19.75;;
54263;SDS011;40178;53.042;6.406;2023-02-17T07:37:15;54.80;;;20.50;;
54263;SDS011;40178;53.042;6.406;2023-02-17T07:39:40;50.13;;;19.52;;
54263;SDS011;40178;53.042;6.406;2023-02-17T07:42:06;51.33;;;19.92;;
54263;SDS011;40178;53.042;6.406;2023-02-17T07:44:32;49.38;;;19.77;;
54263;SDS011;40178;53.042;6.406;2023-02-17T07:46:57;50.25;;;18.98;;
54263;SDS011;40178;53.042;6.406;2023-02-17T07:49:23;50.08;;;21.13;;
54263;SDS011;40178;53.042;6.406;2023-02-17T07:51:48;52.30;;;19.55;;
54263;SDS011;40178;53.042;6.406;2023-02-17T07:54:14;44.90;;;19.50;;
54263;SDS011;40178;53.042;6.406;2023-02-17T07:56:40;48.88;;;19.45;;
54263;SDS011;40178;53.042;6.406;2023-02-17T07:59:12;43.80;;;18.80;;
54263;SDS011;40178;53.042;6.406;2023-02-17T08:01:38;50.28;;;19.30;;
54263;SDS011;40178;53.042;6.406;2023-02-17T08:04:03;47.17;;;18.92;;
54263;SDS011;40178;53.042;6.406;2023-02-17T08:06:29;49.00;;;17.95;;
54263;SDS011;40178;53.042;6.406;2023-02-17T08:08:55;49.17;;;18.92;;
54263;SDS011;40178;53.042;6.406;2023-02-17T08:11:39;46.58;;;18.42;;
54263;SDS011;40178;53.042;6.406;2023-02-17T08:14:25;47.05;;;19.33;;
54263;SDS011;40178;53.042;6.406;2023-02-17T08:16:52;43.67;;;17.27;;
54263;SDS011;40178;53.042;6.406;2023-02-17T08:19:18;41.45;;;16.85;;
54263;SDS011;40178;53.042;6.406;2023-02-17T08:21:44;45.88;;;18.42;;
54263;SDS011;40178;53.042;6.406;2023-02-17T08:24:10;50.63;;;18.63;;
54263;SDS011;40178;53.042;6.406;2023-02-17T08:26:36;41.92;;;17.55;;
54263;SDS011;40178;53.042;6.406;2023-02-17T08:29:02;38.15;;;14.07;;
54263;SDS011;40178;53.042;6.406;2023-02-17T08:31:29;36.13;;;12.48;;
54263;SDS011;40178;53.042;6.406;2023-02-17T08:33:56;44.50;;;14.23;;
54263;SDS011;40178;53.042;6.406;2023-02-17T08:36:24;37.22;;;14.35;;
54263;SDS011;40178;53.042;6.406;2023-02-17T08:38:50;36.70;;;14.57;;
54263;SDS011;40178;53.042;6.406;2023-02-17T08:41:27;34.20;;;14.07;;
54263;SDS011;40178;53.042;6.406;2023-02-17T08:43:56;34.78;;;14.25;;
54263;SDS011;40178;53.042;6.406;2023-02-17T08:46:23;33.15;;;14.32;;
54263;SDS011;40178;53.042;6.406;2023-02-17T08:51:19;33.63;;;13.18;;
54263;SDS011;40178;53.042;6.406;2023-02-17T08:53:56;32.97;;;13.70;;
54263;SDS011;40178;53.042;6.406;2023-02-17T08:56:24;27.77;;;13.02;;
54263;SDS011;40178;53.042;6.406;2023-02-17T08:58:51;27.65;;;11.82;;
54263;SDS011;40178;53.042;6.406;2023-02-17T09:01:17;27.08;;;12.13;;
54263;SDS011;40178;53.042;6.406;2023-02-17T09:03:44;26.45;;;12.30;;
54263;SDS011;40178;53.042;6.406;2023-02-17T09:06:11;29.23;;;10.88;;
54263;SDS011;40178;53.042;6.406;2023-02-17T09:08:37;25.42;;;11.23;;
54263;SDS011;40178;53.042;6.406;2023-02-17T09:11:05;25.05;;;11.55;;
54263;SDS011;40178;53.042;6.406;2023-02-17T09:13:31;25.08;;;11.73;;
54263;SDS011;40178;53.042;6.406;2023-02-17T09:15:57;25.20;;;11.15;;
54263;SDS011;40178;53.042;6.406;2023-02-17T09:18:23;27.13;;;11.07;;
54263;SDS011;40178;53.042;6.406;2023-02-17T09:20:50;24.00;;;12.20;;
54263;SDS011;40178;53.042;6.406;2023-02-17T09:23:16;22.10;;;10.73;;
54263;SDS011;40178;53.042;6.406;2023-02-17T09:25:42;24.25;;;10.77;;
54263;SDS011;40178;53.042;6.406;2023-02-17T09:28:08;25.17;;;10.88;;
54263;SDS011;40178;53.042;6.406;2023-02-17T09:30:34;23.20;;;9.98;;
54263;SDS011;40178;53.042;6.406;2023-02-17T09:33:00;29.02;;;10.65;;
54263;SDS011;40178;53.042;6.406;2023-02-17T09:35:27;25.30;;;9.93;;
54263;SDS011;40178;53.042;6.406;2023-02-17T09:37:53;25.30;;;10.27;;
54263;SDS011;40178;53.042;6.406;2023-02-17T09:43:12;19.35;;;9.50;;
54263;SDS011;40178;53.042;6.406;2023-02-17T09:45:40;19.60;;;9.43;;
54263;SDS011;40178;53.042;6.406;2023-02-17T09:48:11;22.58;;;8.77;;
54263;SDS011;40178;53.042;6.406;2023-02-17T09:53:41;17.67;;;9.43;;
54263;SDS011;40178;53.042;6.406;2023-02-17T09:56:16;21.45;;;9.10;;
54263;SDS011;40178;53.042;6.406;2023-02-17T09:58:50;24.88;;;9.50;;
54263;SDS011;40178;53.042;6.406;2023-02-17T10:01:20;23.42;;;9.40;;
54263;SDS011;40178;53.042;6.406;2023-02-17T10:03:56;21.40;;;8.90;;
54263;SDS011;40178;53.042;6.406;2023-02-17T10:06:30;20.88;;;9.15;;
54263;SDS011;40178;53.042;6.406;2023-02-17T10:11:33;20.20;;;8.68;;
54263;SDS011;40178;53.042;6.406;2023-02-17T10:14:17;18.73;;;7.22;;
54263;SDS011;40178;53.042;6.406;2023-02-17T10:16:52;22.27;;;9.52;;
54263;SDS011;40178;53.042;6.406;2023-02-17T10:19:28;26.90;;;9.38;;
54263;SDS011;40178;53.042;6.406;2023-02-17T10:22:07;21.00;;;8.45;;
54263;SDS011;40178;53.042;6.406;2023-02-17T10:24:38;20.25;;;8.77;;
54263;SDS011;40178;53.042;6.406;2023-02-17T10:37:33;18.63;;;8.10;;
54263;SDS011;40178;53.042;6.406;2023-02-17T10:40:11;20.20;;;7.47;;
54263;SDS011;40178;53.042;6.406;2023-02-17T10:42:40;15.73;;;7.05;;
54263;SDS011;40178;53.042;6.406;2023-02-17T10:45:11;16.33;;;6.88;;
54263;SDS011;40178;53.042;6.406;2023-02-17T10:48:19;13.18;;;6.72;;
54263;SDS011;40178;53.042;6.406;2023-02-17T10:50:57;18.00;;;6.38;;
54263;SDS011;40178;53.042;6.406;2023-02-17T10:53:25;18.02;;;5.95;;
54263;SDS011;40178;53.042;6.406;2023-02-17T11:01:10;16.70;;;6.22;;
54263;SDS011;40178;53.042;6.406;2023-02-17T11:03:37;14.00;;;5.97;;
54263;SDS011;40178;53.042;6.406;2023-02-17T11:06:05;14.68;;;5.57;;
54263;SDS011;40178;53.042;6.406;2023-02-17T11:08:44;14.32;;;5.70;;
54263;SDS011;40178;53.042;6.406;2023-02-17T11:11:21;17.63;;;6.40;;
54263;SDS011;40178;53.042;6.406;2023-02-17T11:14:00;14.23;;;5.30;;
54263;SDS011;40178;53.042;6.406;2023-02-17T11:19:06;15.20;;;5.43;;
54263;SDS011;40178;53.042;6.406;2023-02-17T11:21:46;11.02;;;4.82;;
54263;SDS011;40178;53.042;6.406;2023-02-17T11:24:11;16.30;;;5.75;;
54263;SDS011;40178;53.042;6.406;2023-02-17T11:26:37;13.38;;;5.25;;
54263;SDS011;40178;53.042;6.406;2023-02-17T11:29:36;12.82;;;4.13;;
54263;SDS011;40178;53.042;6.406;2023-02-17T11:34:27;12.77;;;4.80;;
54263;SDS011;40178;53.042;6.406;2023-02-17T11:39:36;15.18;;;4.63;;
54263;SDS011;40178;53.042;6.406;2023-02-17T11:42:16;15.10;;;4.32;;
54263;SDS011;40178;53.042;6.406;2023-02-17T11:44:53;9.75;;;4.10;;
54263;SDS011;40178;53.042;6.406;2023-02-17T11:47:24;10.50;;;4.60;;
54263;SDS011;40178;53.042;6.406;2023-02-17T11:50:03;11.55;;;3.90;;
54263;SDS011;40178;53.042;6.406;2023-02-17T11:53:02;12.07;;;3.70;;
54263;SDS011;40178;53.042;6.406;2023-02-17T11:58:55;12.57;;;3.22;;
54263;SDS011;40178;53.042;6.406;2023-02-17T12:04:30;9.90;;;3.10;;
54263;SDS011;40178;53.042;6.406;2023-02-17T12:10:02;8.82;;;2.28;;
54263;SDS011;40178;53.042;6.406;2023-02-17T12:15:48;7.43;;;2.20;;
54263;SDS011;40178;53.042;6.406;2023-02-17T12:18:48;7.25;;;2.40;;
54263;SDS011;40178;53.042;6.406;2023-02-17T12:21:41;10.43;;;2.60;;
54263;SDS011;40178;53.042;6.406;2023-02-17T12:24:21;7.55;;;2.58;;
54263;SDS011;40178;53.042;6.406;2023-02-17T12:27:02;7.20;;;2.92;;
54263;SDS011;40178;53.042;6.406;2023-02-17T12:35:22;9.40;;;2.13;;
54263;SDS011;40178;53.042;6.406;2023-02-17T12:37:55;6.68;;;1.40;;
54263;SDS011;40178;53.042;6.406;2023-02-17T12:46:18;5.47;;;1.58;;
54263;SDS011;40178;53.042;6.406;2023-02-17T12:51:37;9.57;;;1.77;;
54263;SDS011;40178;53.042;6.406;2023-02-17T12:54:19;7.47;;;1.67;;
54263;SDS011;40178;53.042;6.406;2023-02-17T12:56:48;4.63;;;1.52;;
54263;SDS011;40178;53.042;6.406;2023-02-17T13:02:04;5.18;;;1.70;;
54263;SDS011;40178;53.042;6.406;2023-02-17T13:04:34;12.35;;;1.80;;
54263;SDS011;40178;53.042;6.406;2023-02-17T13:07:02;5.90;;;1.80;;
54263;SDS011;40178;53.042;6.406;2023-02-17T13:09:41;7.60;;;1.42;;
54263;SDS011;40178;53.042;6.406;2023-02-17T13:12:17;5.57;;;1.38;;
54263;SDS011;40178;53.042;6.406;2023-02-17T13:15:05;6.25;;;2.00;;
54263;SDS011;40178;53.042;6.406;2023-02-17T13:17:57;10.00;;;2.00;;
54263;SDS011;40178;53.042;6.406;2023-02-17T13:23:13;10.50;;;1.90;;
54263;SDS011;40178;53.042;6.406;2023-02-17T13:25:59;7.88;;;2.08;;
54263;SDS011;40178;53.042;6.406;2023-02-17T13:28:47;7.50;;;1.73;;
54263;SDS011;40178;53.042;6.406;2023-02-17T13:31:24;6.63;;;1.70;;
54263;SDS011;40178;53.042;6.406;2023-02-17T13:33:54;9.38;;;2.00;;
54263;SDS011;40178;53.042;6.406;2023-02-17T13:38:53;5.82;;;1.85;;
54263;SDS011;40178;53.042;6.406;2023-02-17T13:41:25;4.65;;;1.40;;
54263;SDS011;40178;53.042;6.406;2023-02-17T13:43:52;6.22;;;1.45;;
54263;SDS011;40178;53.042;6.406;2023-02-17T13:46:22;6.07;;;1.52;;
54263;SDS011;40178;53.042;6.406;2023-02-17T13:49:03;6.30;;;1.83;;
54263;SDS011;40178;53.042;6.406;2023-02-17T13:51:31;6.20;;;1.85;;
54263;SDS011;40178;53.042;6.406;2023-02-17T13:54:07;8.35;;;1.63;;
54263;SDS011;40178;53.042;6.406;2023-02-17T13:56:33;6.13;;;1.65;;
54263;SDS011;40178;53.042;6.406;2023-02-17T14:01:54;5.60;;;1.35;;
54263;SDS011;40178;53.042;6.406;2023-02-17T14:04:26;7.50;;;1.70;;
54263;SDS011;40178;53.042;6.406;2023-02-17T14:06:56;6.78;;;1.65;;
54263;SDS011;40178;53.042;6.406;2023-02-17T14:09:25;5.47;;;1.60;;
54263;SDS011;40178;53.042;6.406;2023-02-17T14:11:55;7.55;;;1.50;;
54263;SDS011;40178;53.042;6.406;2023-02-17T14:14:22;5.82;;;1.63;;
54263;SDS011;40178;53.042;6.406;2023-02-17T14:19:27;7.78;;;1.27;;
54263;SDS011;40178;53.042;6.406;2023-02-17T14:24:29;5.47;;;1.70;;
54263;SDS011;40178;53.042;6.406;2023-02-17T14:27:01;6.10;;;1.40;;
54263;SDS011;40178;53.042;6.406;2023-02-17T14:29:45;6.57;;;1.80;;
54263;SDS011;40178;53.042;6.406;2023-02-17T14:32:31;6.38;;;1.85;;
54263;SDS011;40178;53.042;6.406;2023-02-17T14:35:06;6.38;;;2.17;;
54263;SDS011;40178;53.042;6.406;2023-02-17T14:37:39;7.10;;;1.80;;
54263;SDS011;40178;53.042;6.406;2023-02-17T14:40:13;6.15;;;1.63;;
54263;SDS011;40178;53.042;6.406;2023-02-17T14:42:44;9.55;;;1.83;;
54263;SDS011;40178;53.042;6.406;2023-02-17T14:45:11;6.50;;;2.05;;
54263;SDS011;40178;53.042;6.406;2023-02-17T14:47:40;7.65;;;1.70;;
54263;SDS011;40178;53.042;6.406;2023-02-17T14:50:07;7.15;;;1.85;;
54263;SDS011;40178;53.042;6.406;2023-02-17T14:52:33;8.13;;;1.73;;
54263;SDS011;40178;53.042;6.406;2023-02-17T14:55:14;7.95;;;1.70;;
54263;SDS011;40178;53.042;6.406;2023-02-17T14:57:46;11.70;;;1.98;;
54263;SDS011;40178;53.042;6.406;2023-02-17T15:00:12;7.78;;;1.90;;
54263;SDS011;40178;53.042;6.406;2023-02-17T15:02:38;8.93;;;2.03;;
54263;SDS011;40178;53.042;6.406;2023-02-17T15:05:04;7.95;;;1.58;;
54263;SDS011;40178;53.042;6.406;2023-02-17T15:07:30;7.72;;;2.28;;
54263;SDS011;40178;53.042;6.406;2023-02-17T15:09:56;8.88;;;1.80;;
54263;SDS011;40178;53.042;6.406;2023-02-17T15:12:21;6.40;;;1.63;;
54263;SDS011;40178;53.042;6.406;2023-02-17T15:14:48;9.50;;;2.00;;
54263;SDS011;40178;53.042;6.406;2023-02-17T15:17:14;12.20;;;3.25;;
54263;SDS011;40178;53.042;6.406;2023-02-17T15:19:40;9.63;;;2.08;;
54263;SDS011;40178;53.042;6.406;2023-02-17T15:22:09;11.93;;;2.08;;
54263;SDS011;40178;53.042;6.406;2023-02-17T15:24:37;15.88;;;1.63;;
54263;SDS011;40178;53.042;6.406;2023-02-17T15:27:04;10.05;;;1.95;;
54263;SDS011;40178;53.042;6.406;2023-02-17T15:29:30;8.60;;;1.90;;
54263;SDS011;40178;53.042;6.406;2023-02-17T15:32:16;6.47;;;1.02;;
54263;SDS011;40178;53.042;6.406;2023-02-17T15:34:47;7.43;;;1.63;;
54263;SDS011;40178;53.042;6.406;2023-02-17T15:37:13;8.75;;;1.45;;
54263;SDS011;40178;53.042;6.406;2023-02-17T15:39:39;8.75;;;1.60;;
54263;SDS011;40178;53.042;6.406;2023-02-17T15:42:05;8.30;;;1.77;;
54263;SDS011;40178;53.042;6.406;2023-02-17T15:44:40;8.70;;;1.40;;
54263;SDS011;40178;53.042;6.406;2023-02-17T15:47:16;9.20;;;1.48;;
54263;SDS011;40178;53.042;6.406;2023-02-17T15:49:43;11.80;;;1.73;;
54263;SDS011;40178;53.042;6.406;2023-02-17T15:52:10;8.32;;;1.52;;
54263;SDS011;40178;53.042;6.406;2023-02-17T15:54:40;10.75;;;1.75;;
54263;SDS011;40178;53.042;6.406;2023-02-17T15:57:07;10.85;;;1.65;;
54263;SDS011;40178;53.042;6.406;2023-02-17T15:59:44;9.82;;;1.35;;
54263;SDS011;40178;53.042;6.406;2023-02-17T16:02:15;9.05;;;1.33;;
54263;SDS011;40178;53.042;6.406;2023-02-17T16:04:43;7.72;;;1.67;;
54263;SDS011;40178;53.042;6.406;2023-02-17T16:07:09;10.65;;;2.25;;
54263;SDS011;40178;53.042;6.406;2023-02-17T16:09:35;8.35;;;1.83;;
54263;SDS011;40178;53.042;6.406;2023-02-17T16:12:00;8.98;;;1.52;;
54263;SDS011;40178;53.042;6.406;2023-02-17T16:14:33;6.25;;;1.35;;
54263;SDS011;40178;53.042;6.406;2023-02-17T16:17:01;9.75;;;2.25;;
54263;SDS011;40178;53.042;6.406;2023-02-17T16:19:27;8.98;;;1.48;;
54263;SDS011;40178;53.042;6.406;2023-02-17T16:21:53;6.97;;;1.05;;